Time;durP1;ratioP1;P1;durP2;ratioP2;P2;SDS_P1;SDS_P2;PMS_P1;PMS_P2;Temp;Humidity;BMP_temperature;BMP_pressure;BME280_temperature;BME280_humidity;BME280_pressure;Samples;Min_cycle;Max_cycle;Signal;HPM_P1;HPM_P2
2022/02/07 00:02:02;;;;;;;9.63;1.67;;;6.00;92.40;;;;;;4972743;28;20470;-67
2022/02/07 00:04:34;;;;;;;14.00;2.60;;;5.90;92.90;;;;;;4974389;28;20062;-67
2022/02/07 00:07:01;;;;;;;11.45;2.10;;;5.90;93.00;;;;;;4969816;28;20537;-67
2022/02/07 00:09:29;;;;;;;11.95;2.10;;;5.90;93.00;;;;;;4969787;28;20043;-67
2022/02/07 00:11:56;;;;;;;13.30;2.53;;;5.90;93.20;;;;;;4969153;28;20062;-67
2022/02/07 00:14:23;;;;;;;8.15;2.95;;;5.90;93.00;;;;;;4969363;28;20051;-67
2022/02/07 00:16:50;;;;;;;8.23;1.60;;;5.90;92.80;;;;;;4968605;28;20102;-66
2022/02/07 00:19:24;;;;;;;16.80;2.10;;;5.90;93.50;;;;;;4969220;28;20154;-65
2022/02/07 00:21:51;;;;;;;17.00;2.38;;;5.80;93.50;;;;;;4969415;28;20055;-66
2022/02/07 00:24:18;;;;;;;15.95;2.78;;;5.80;93.20;;;;;;4951875;28;20039;-65
2022/02/07 00:26:45;;;;;;;9.60;2.47;;;5.50;93.00;;;;;;4968701;28;20050;-65
2022/02/07 00:29:12;;;;;;;13.82;2.80;;;5.90;93.00;;;;;;4968850;28;20098;-67
2022/02/07 00:31:40;;;;;;;20.85;2.78;;;5.90;93.00;;;;;;4968424;28;20047;-66
2022/02/07 00:34:07;;;;;;;14.68;2.53;;;5.90;92.90;;;;;;4968880;28;20082;-67
2022/02/07 00:36:34;;;;;;;21.10;2.83;;;5.90;92.90;;;;;;4969012;28;20145;-68
2022/02/07 00:39:07;;;;;;;14.20;2.15;;;5.90;92.90;;;;;;4968087;28;20089;-66
2022/02/07 00:41:43;;;;;;;19.73;2.40;;;5.80;93.00;;;;;;4968626;28;20074;-68
2022/02/07 00:44:16;;;;;;;16.55;2.92;;;5.90;92.90;;;;;;4969191;28;20117;-67
2022/02/07 00:46:58;;;;;;;13.20;3.85;;;5.80;93.20;;;;;;4969081;28;20109;-66
2022/02/07 00:49:25;;;;;;;13.02;2.22;;;5.80;93.20;;;;;;4968240;28;20053;-65
2022/02/07 00:51:52;;;;;;;11.68;2.25;;;5.80;93.40;;;;;;4968909;28;20315;-64
2022/02/07 00:54:20;;;;;;;19.50;3.20;;;5.80;93.50;;;;;;4969561;28;20093;-66
2022/02/07 00:56:50;;;;;;;17.65;2.75;;;5.80;93.60;;;;;;4972595;28;20097;-65
2022/02/07 00:59:17;;;;;;;14.80;2.58;;;5.80;93.30;;;;;;4972341;28;20058;-66
2022/02/07 01:01:44;;;;;;;20.02;2.90;;;5.70;93.50;;;;;;4972262;28;20043;-65
2022/02/07 01:04:11;;;;;;;12.95;3.03;;;5.70;93.40;;;;;;4955162;28;20059;-65
2022/02/07 01:06:38;;;;;;;11.48;2.97;;;5.70;93.40;;;;;;4972332;28;20097;-65
2022/02/07 01:09:21;;;;;;;17.48;4.53;;;5.70;93.50;;;;;;4971176;28;20450;-67
2022/02/07 01:14:43;;;;;;;9.23;2.15;;;5.70;93.30;;;;;;4971663;28;20051;-66
2022/02/07 01:57:56;;;;;;;18.10;2.97;;;5.60;93.80;;;;;;4957835;28;20250;-67
2022/02/07 02:00:23;;;;;;;15.80;4.15;;;5.60;93.80;;;;;;4952709;28;20082;-67
2022/02/07 02:02:49;;;;;;;20.17;3.97;;;5.60;94.20;;;;;;4972046;28;20051;-66
2022/02/07 02:05:16;;;;;;;16.77;3.70;;;5.50;94.10;;;;;;4970634;28;20138;-67
2022/02/07 02:07:44;;;;;;;9.38;2.35;;;5.50;94.20;;;;;;4970159;28;20078;-66
2022/02/07 02:10:11;;;;;;;18.42;2.63;;;5.50;94.30;;;;;;4971488;28;20345;-67
2022/02/07 02:12:55;;;;;;;20.02;3.20;;;5.60;94.50;;;;;;4971011;28;20105;-67
2022/02/07 02:15:45;;;;;;;19.45;3.08;;;5.50;94.60;;;;;;4971446;28;20043;-67
2022/02/07 02:38:00;;;;;;;14.85;3.33;;;5.60;94.80;;;;;;4975872;28;20078;-66
2022/02/07 02:45:42;;;;;;;13.07;2.40;;;5.50;94.70;;;;;;4943558;28;20114;-67
2022/02/07 02:48:17;;;;;;;18.35;2.58;;;5.50;94.70;;;;;;4971272;28;20494;-67
2022/02/07 02:50:48;;;;;;;11.90;2.75;;;5.50;95.00;;;;;;4970326;28;20521;-67
2022/02/07 02:53:15;;;;;;;25.25;3.58;;;5.50;95.00;;;;;;4969173;28;20047;-66
2022/02/07 02:55:44;;;;;;;23.98;3.67;;;5.50;94.80;;;;;;4970331;28;20529;-67
2022/02/07 02:58:12;;;;;;;20.63;2.60;;;5.50;94.90;;;;;;4970476;28;20129;-65
2022/02/07 03:00:40;;;;;;;11.15;2.38;;;5.40;94.70;;;;;;4969564;28;20110;-65
2022/02/07 03:03:09;;;;;;;15.55;3.90;;;5.40;95.00;;;;;;4970534;28;20466;-66
2022/02/07 03:05:36;;;;;;;20.63;3.00;;;5.40;94.70;;;;;;4971409;28;20050;-66
2022/02/07 03:08:03;;;;;;;18.23;3.03;;;5.40;94.80;;;;;;4969807;28;20457;-66
2022/02/07 03:10:43;;;;;;;13.75;2.75;;;5.40;94.70;;;;;;4970629;28;20141;-66
2022/02/07 03:18:22;;;;;;;9.32;2.17;;;5.20;95.10;;;;;;4969422;28;20058;-65
2022/02/07 03:20:49;;;;;;;18.23;3.10;;;5.20;95.50;;;;;;4969059;28;20074;-66
2022/02/07 03:23:16;;;;;;;13.88;2.55;;;5.20;95.50;;;;;;4970333;28;20138;-66
2022/02/07 03:25:43;;;;;;;16.08;3.47;;;5.20;95.70;;;;;;4971508;28;20097;-67
2022/02/07 03:28:09;;;;;;;18.88;2.92;;;5.20;95.40;;;;;;4970497;28;20051;-66
2022/02/07 03:30:36;;;;;;;13.95;2.80;;;5.10;95.40;;;;;;4970348;28;20544;-66
2022/02/07 03:33:04;;;;;;;26.20;3.47;;;5.20;95.30;;;;;;4969454;28;20054;-66
2022/02/07 03:35:31;;;;;;;12.75;2.22;;;5.20;95.50;;;;;;4969579;28;20082;-66
2022/02/07 03:37:58;;;;;;;17.58;3.13;;;5.10;95.90;;;;;;4971166;28;20520;-66
2022/02/07 03:40:25;;;;;;;20.80;2.50;;;5.20;95.60;;;;;;4970359;28;20047;-65
2022/02/07 03:42:52;;;;;;;15.63;3.22;;;5.20;95.80;;;;;;4969416;28;20442;-65
2022/02/07 03:45:19;;;;;;;9.35;2.78;;;5.10;96.10;;;;;;4969799;28;20078;-66
2022/02/07 03:47:45;;;;;;;8.77;2.47;;;5.10;95.90;;;;;;4969474;28;20054;-67
2022/02/07 03:50:12;;;;;;;14.07;2.33;;;5.10;95.90;;;;;;4970541;28;20093;-65
2022/02/07 03:52:39;;;;;;;11.10;3.22;;;5.10;96.10;;;;;;4970685;28;20083;-65
2022/02/07 03:55:06;;;;;;;9.32;2.63;;;5.10;96.10;;;;;;4971159;28;20126;-65
2022/02/07 03:57:33;;;;;;;11.95;2.10;;;5.10;95.90;;;;;;4970194;28;20055;-65
2022/02/07 04:00:04;;;;;;;16.58;2.97;;;5.10;96.10;;;;;;4971516;28;20494;-67
2022/02/07 04:02:37;;;;;;;15.15;2.55;;;5.10;95.90;;;;;;4973195;28;20113;-66
2022/02/07 04:05:34;;;;;;;15.13;2.50;;;5.10;95.90;;;;;;4973465;28;20525;-66
2022/02/07 04:07:54;;;;;;;16.13;2.53;;;5.00;96.00;;;;;;4969501;28;20051;-66
2022/02/07 04:10:22;;;;;;;18.10;2.95;;;5.00;95.90;;;;;;4969836;28;20047;-66
2022/02/07 04:12:55;;;;;;;26.77;3.72;;;5.00;96.00;;;;;;4969110;28;20077;-66
2022/02/07 04:15:22;;;;;;;18.00;2.33;;;5.00;96.00;;;;;;4969362;28;20054;-66
2022/02/07 04:18:00;;;;;;;17.52;2.17;;;4.90;96.00;;;;;;4970002;28;20082;-66
2022/02/07 04:20:26;;;;;;;21.92;2.97;;;4.90;96.10;;;;;;4968039;28;20074;-66
2022/02/07 04:22:53;;;;;;;11.30;2.30;;;4.90;96.50;;;;;;4969620;28;20110;-66
2022/02/07 04:25:20;;;;;;;16.00;3.88;;;4.80;96.50;;;;;;4969466;28;20146;-66
2022/02/07 04:27:46;;;;;;;12.15;2.97;;;4.80;96.30;;;;;;4953335;28;20090;-66
2022/02/07 04:30:13;;;;;;;10.77;2.20;;;4.80;96.30;;;;;;4973101;28;20078;-66
2022/02/07 04:32:40;;;;;;;14.57;2.70;;;4.80;96.90;;;;;;4972963;28;20211;-66
2022/02/07 04:35:07;;;;;;;15.32;2.47;;;4.80;96.50;;;;;;4972295;28;20097;-66
2022/02/07 04:37:34;;;;;;;15.02;2.17;;;4.70;96.60;;;;;;4972155;28;20050;-65
2022/02/07 04:40:01;;;;;;;16.45;2.85;;;4.70;96.50;;;;;;4972671;28;20490;-66
2022/02/07 04:42:28;;;;;;;19.48;2.47;;;4.70;96.50;;;;;;4973527;28;20462;-67
2022/02/07 04:47:59;;;;;;;15.15;2.90;;;4.60;96.80;;;;;;4973075;28;20055;-66
2022/02/07 04:58:58;;;;;;;18.80;2.35;;;4.60;96.70;;;;;;4972999;28;20473;-66
2022/02/07 05:03:49;;;;;;;17.90;2.50;;;4.50;97.00;;;;;;4972817;28;20055;-66
2022/02/07 05:14:34;;;;;;;25.33;2.50;;;4.30;97.30;;;;;;4972673;28;20078;-66
2022/02/07 05:17:03;;;;;;;20.58;4.35;;;4.10;97.40;;;;;;4972148;28;20058;-66
2022/02/07 05:19:30;;;;;;;15.77;2.30;;;4.10;97.50;;;;;;4971912;28;20047;-66
2022/02/07 05:21:57;;;;;;;14.40;2.60;;;4.00;97.60;;;;;;4972261;28;20161;-67
2022/02/07 05:24:23;;;;;;;24.77;3.65;;;3.90;97.70;;;;;;4972380;28;20074;-66
2022/02/07 05:26:50;;;;;;;11.18;2.17;;;3.90;97.80;;;;;;4972110;28;20181;-67
2022/02/07 05:29:17;;;;;;;18.05;2.85;;;3.90;97.80;;;;;;4970900;28;20046;-66
2022/02/07 05:31:44;;;;;;;11.38;2.35;;;3.80;98.20;;;;;;4971617;28;20075;-66
2022/02/07 05:34:10;;;;;;;12.15;2.95;;;3.90;98.30;;;;;;4971686;28;20109;-67
2022/02/07 05:36:42;;;;;;;17.48;2.55;;;3.80;98.20;;;;;;4972138;28;20085;-67
2022/02/07 05:39:16;;;;;;;12.68;3.55;;;3.80;98.20;;;;;;4973394;28;20082;-67
2022/02/07 05:41:43;;;;;;;20.67;4.45;;;3.80;98.10;;;;;;4974316;28;20555;-67
2022/02/07 05:44:12;;;;;;;11.70;2.33;;;3.90;98.10;;;;;;4974824;28;20043;-66
2022/02/07 05:46:39;;;;;;;10.10;2.25;;;3.90;98.00;;;;;;4974893;28;20046;-66
2022/02/07 05:49:07;;;;;;;19.05;3.00;;;3.80;98.10;;;;;;4974813;28;20105;-66
2022/02/07 05:51:33;;;;;;;15.23;2.35;;;3.80;98.30;;;;;;4974690;28;20051;-66
2022/02/07 05:54:00;;;;;;;15.98;2.65;;;3.80;98.60;;;;;;4974678;28;20047;-67
2022/02/07 05:56:27;;;;;;;20.00;3.88;;;3.80;98.00;;;;;;4972491;28;20106;-66
2022/02/07 05:58:54;;;;;;;10.90;2.25;;;3.70;98.30;;;;;;4971932;28;20474;-66
2022/02/07 06:01:20;;;;;;;10.45;2.42;;;3.80;98.20;;;;;;4971751;28;20133;-66
2022/02/07 06:03:47;;;;;;;14.50;2.10;;;3.70;98.30;;;;;;4969618;28;20077;-66
2022/02/07 06:06:14;;;;;;;10.38;2.75;;;3.70;98.40;;;;;;4971633;28;20137;-67
2022/02/07 06:08:41;;;;;;;21.27;2.88;;;3.70;98.30;;;;;;4971365;28;20078;-66
2022/02/07 06:11:08;;;;;;;8.32;3.05;;;3.70;98.30;;;;;;4971389;28;20071;-67
2022/02/07 06:13:38;;;;;;;13.43;2.45;;;3.40;98.20;;;;;;4971976;28;20102;-65
2022/02/07 06:16:06;;;;;;;15.70;2.42;;;3.70;98.40;;;;;;4972712;28;20047;-66
2022/02/07 06:18:33;;;;;;;16.10;2.60;;;3.70;98.40;;;;;;4971098;28;20082;-65
2022/02/07 06:21:03;;;;;;;11.43;2.80;;;3.80;98.30;;;;;;4971492;28;20077;-66
2022/02/07 06:23:30;;;;;;;17.30;3.17;;;3.70;98.50;;;;;;4971199;28;20484;-66
2022/02/07 06:25:57;;;;;;;10.15;2.08;;;3.80;98.50;;;;;;4971771;28;20640;-66
2022/02/07 06:28:24;;;;;;;14.23;2.47;;;3.70;98.50;;;;;;4970597;28;20677;-67
2022/02/07 06:30:51;;;;;;;17.58;4.63;;;3.60;98.60;;;;;;4971521;28;20047;-67
2022/02/07 06:33:19;;;;;;;11.15;2.38;;;3.60;98.50;;;;;;4972792;28;20441;-67
2022/02/07 06:35:46;;;;;;;14.85;2.88;;;3.60;98.50;;;;;;4973332;28;20051;-66
2022/02/07 06:38:13;;;;;;;13.57;2.78;;;3.60;98.50;;;;;;4973251;28;20051;-66
2022/02/07 06:40:39;;;;;;;21.63;4.13;;;3.60;98.50;;;;;;4973006;28;20093;-65
2022/02/07 06:43:06;;;;;;;17.02;2.70;;;3.60;98.70;;;;;;4973119;28;20078;-67
2022/02/07 06:45:33;;;;;;;11.93;2.22;;;3.60;98.50;;;;;;4973509;28;20051;-67
2022/02/07 06:48:00;;;;;;;12.85;1.92;;;3.60;98.60;;;;;;4973670;28;20077;-66
2022/02/07 06:50:27;;;;;;;17.98;3.17;;;3.60;98.50;;;;;;4971157;28;20142;-66
2022/02/07 06:52:53;;;;;;;11.32;1.92;;;3.60;98.60;;;;;;4969584;28;20047;-67
2022/02/07 06:55:20;;;;;;;8.85;2.28;;;3.60;98.50;;;;;;4970078;28;20053;-66
2022/02/07 06:57:47;;;;;;;17.75;3.65;;;3.60;98.30;;;;;;4970593;28;20089;-66
2022/02/07 07:00:14;;;;;;;15.93;2.38;;;3.60;98.30;;;;;;4970359;28;20043;-66
2022/02/07 07:02:42;;;;;;;15.07;2.55;;;3.60;98.30;;;;;;4970346;28;20105;-67
2022/02/07 07:05:13;;;;;;;12.68;2.42;;;3.60;98.40;;;;;;4969475;28;20105;-66
2022/02/07 07:07:40;;;;;;;12.20;2.63;;;3.60;98.40;;;;;;4969986;28;20132;-66
2022/02/07 07:10:08;;;;;;;16.48;3.72;;;3.60;98.40;;;;;;4969135;28;20528;-66
2022/02/07 07:12:36;;;;;;;14.48;3.60;;;3.50;98.50;;;;;;4970145;28;20055;-67
2022/02/07 07:15:09;;;;;;;16.38;2.95;;;3.40;98.50;;;;;;4970238;28;20090;-67
2022/02/07 07:17:36;;;;;;;14.18;4.82;;;3.40;98.50;;;;;;4970324;28;20161;-66
2022/02/07 07:20:07;;;;;;;8.23;3.15;;;3.50;98.60;;;;;;4969897;28;20046;-67
2022/02/07 07:22:35;;;;;;;13.07;2.00;;;3.50;98.50;;;;;;4969883;28;20109;-67
2022/02/07 07:25:03;;;;;;;13.60;2.92;;;3.50;98.50;;;;;;4967623;28;20081;-67
2022/02/07 07:27:35;;;;;;;12.65;3.15;;;3.60;98.50;;;;;;4969747;28;20062;-67
2022/02/07 07:30:02;;;;;;;19.85;3.72;;;3.40;98.50;;;;;;4969586;28;20117;-67
2022/02/07 07:32:31;;;;;;;21.48;3.90;;;3.30;98.60;;;;;;4969991;28;20196;-67
2022/02/07 07:35:02;;;;;;;16.45;2.80;;;3.30;98.60;;;;;;4969686;28;20078;-68
2022/02/07 07:37:28;;;;;;;27.52;3.20;;;3.30;98.60;;;;;;4970485;28;20050;-66
2022/02/07 07:39:56;;;;;;;7.43;2.00;;;3.30;98.70;;;;;;4970218;28;20113;-66
2022/02/07 07:42:22;;;;;;;14.65;3.38;;;3.30;98.70;;;;;;4974643;28;20042;-66
2022/02/07 07:44:52;;;;;;;14.63;3.78;;;3.30;98.70;;;;;;4976425;28;20062;-66
2022/02/07 07:47:24;;;;;;;22.90;3.25;;;3.30;98.90;;;;;;4970092;28;20107;-65
2022/02/07 07:50:03;;;;;;;20.27;3.55;;;3.40;98.80;;;;;;4970511;28;20086;-66
2022/02/07 07:52:45;;;;;;;19.55;4.63;;;3.40;98.90;;;;;;4954828;28;20547;-66
2022/02/07 08:01:15;;;;;;;14.35;2.72;;;3.40;98.90;;;;;;4970173;28;20104;-64
2022/02/07 08:01:22;;;;;;;18.13;4.47;;;3.60;99.00;;;;;;4968907;28;20078;-65
2022/02/07 08:03:52;;;;;;;17.52;3.05;;;3.60;98.90;;;;;;4962677;28;20498;-67
2022/02/07 08:06:29;;;;;;;17.00;3.08;;;3.70;98.90;;;;;;4973235;28;20081;-68
2022/02/07 08:11:30;;;;;;;10.45;3.80;;;3.80;98.80;;;;;;4971737;28;20039;-66
2022/02/07 08:14:00;;;;;;;14.95;2.63;;;3.80;98.80;;;;;;4973019;28;20138;-66
2022/02/07 08:16:27;;;;;;;20.42;4.70;;;3.90;98.80;;;;;;4971037;28;20085;-65
2022/02/07 08:18:57;;;;;;;15.68;2.92;;;4.00;98.80;;;;;;4972799;28;20137;-66
2022/02/07 08:21:24;;;;;;;14.50;3.33;;;4.00;98.90;;;;;;4972817;28;21390;-66
2022/02/07 08:23:51;;;;;;;14.52;2.75;;;4.10;98.90;;;;;;4972585;28;20129;-66
2022/02/07 08:26:20;;;;;;;24.85;5.00;;;4.10;98.80;;;;;;4972838;28;20077;-66
2022/02/07 08:28:47;;;;;;;14.52;3.40;;;4.20;98.90;;;;;;4972541;28;20663;-65
2022/02/07 08:31:14;;;;;;;20.13;4.05;;;4.30;99.00;;;;;;4972519;28;20129;-66
2022/02/07 08:33:41;;;;;;;19.70;2.92;;;4.20;99.10;;;;;;4971374;28;20101;-66
2022/02/07 08:36:08;;;;;;;16.13;2.78;;;4.20;99.10;;;;;;4955367;28;20054;-66
2022/02/07 08:38:35;;;;;;;21.17;4.30;;;4.40;99.30;;;;;;4972481;28;20125;-66
2022/02/07 08:41:02;;;;;;;16.92;3.08;;;4.30;99.30;;;;;;4953518;29;20108;-67
2022/02/07 08:43:29;;;;;;;17.10;2.65;;;4.40;99.20;;;;;;4966937;28;20523;-66
2022/02/07 08:45:56;;;;;;;20.35;3.05;;;4.40;99.40;;;;;;4972906;28;20756;-66
2022/02/07 08:48:24;;;;;;;20.60;4.93;;;4.40;99.20;;;;;;4972537;28;20051;-66
2022/02/07 08:50:54;;;;;;;17.88;2.88;;;4.50;99.50;;;;;;4972736;28;20058;-68
2022/02/07 08:53:23;;;;;;;21.48;3.35;;;4.50;99.10;;;;;;4971244;28;20086;-67
2022/02/07 08:55:52;;;;;;;11.88;2.63;;;4.60;99.10;;;;;;4971955;28;20177;-67
2022/02/07 08:58:23;;;;;;;27.52;2.95;;;4.60;99.10;;;;;;4972061;28;20057;-66
2022/02/07 09:01:05;;;;;;;17.77;2.90;;;4.70;99.30;;;;;;4972612;28;20113;-67
2022/02/07 09:06:12;;;;;;;16.65;2.65;;;4.80;99.00;;;;;;4972208;28;20051;-66
2022/02/07 09:11:09;;;;;;;20.25;2.72;;;5.00;98.80;;;;;;4972654;28;20051;-66
2022/02/07 09:13:39;;;;;;;20.65;3.67;;;5.10;98.70;;;;;;4954740;28;20317;-67
2022/02/07 09:18:37;;;;;;;17.08;3.50;;;5.50;98.30;;;;;;4971687;28;20050;-66
2022/02/07 09:21:06;;;;;;;15.95;3.30;;;5.70;97.90;;;;;;4960674;28;20047;-65
2022/02/07 09:23:36;;;;;;;22.33;3.80;;;5.60;97.80;;;;;;4972212;28;20117;-66
2022/02/07 09:26:04;;;;;;;21.30;3.58;;;5.60;97.90;;;;;;4972328;28;20106;-66
2022/02/07 09:28:31;;;;;;;12.85;3.13;;;5.60;97.90;;;;;;4971498;28;20047;-67
2022/02/07 09:30:58;;;;;;;18.02;4.20;;;5.60;98.00;;;;;;4966928;28;20042;-67
2022/02/07 09:33:27;;;;;;;16.23;3.60;;;5.60;97.90;;;;;;4971318;28;20232;-67
2022/02/07 09:35:58;;;;;;;17.42;3.17;;;5.60;97.90;;;;;;4971514;28;20050;-67
2022/02/07 09:38:25;;;;;;;16.67;4.25;;;5.60;97.80;;;;;;4971960;28;20058;-67
2022/02/07 09:40:53;;;;;;;27.85;3.85;;;5.60;98.00;;;;;;4970297;28;20046;-67
2022/02/07 09:43:24;;;;;;;17.52;3.35;;;5.70;97.90;;;;;;4971714;28;20058;-67
2022/02/07 09:45:51;;;;;;;19.05;3.00;;;5.80;97.80;;;;;;4971590;28;20110;-67
2022/02/07 09:48:19;;;;;;;19.02;4.03;;;5.90;97.80;;;;;;4971307;28;20165;-66
2022/02/07 09:50:46;;;;;;;20.05;4.43;;;6.00;97.60;;;;;;4971010;28;20051;-66
2022/02/07 09:53:13;;;;;;;24.27;3.95;;;6.00;97.50;;;;;;4971338;28;20054;-66
2022/02/07 09:55:40;;;;;;;14.60;3.35;;;6.10;97.20;;;;;;4971078;28;20502;-67
2022/02/07 09:58:07;;;;;;;28.10;4.13;;;6.10;97.10;;;;;;4971544;28;20537;-66
2022/02/07 10:00:36;;;;;;;25.13;6.05;;;6.10;97.30;;;;;;4971176;28;20042;-67
2022/02/07 10:03:17;;;;;;;25.25;3.60;;;6.20;97.30;;;;;;4970601;28;20050;-66
2022/02/07 10:05:50;;;;;;;19.70;3.65;;;6.30;97.40;;;;;;4971211;28;20093;-66
2022/02/07 10:13:53;;;;;;;35.75;4.93;;;6.40;97.10;;;;;;4975163;28;20146;-67
2022/02/07 10:16:34;;;;;;;20.50;3.65;;;6.50;97.00;;;;;;4978503;28;20457;-66
2022/02/07 10:19:24;;;;;;;26.70;5.00;;;6.50;96.80;;;;;;4954778;28;20082;-67
2022/02/07 10:47:12;;;;;;;21.90;3.72;;;6.80;96.10;;;;;;4970601;28;20050;-67
2022/02/07 10:50:07;;;;;;;13.05;3.05;;;6.80;96.10;;;;;;4970574;28;20050;-68
2022/02/07 10:52:47;;;;;;;;;;;6.80;95.70;;;;;;4953383;28;20141;-66
2022/02/07 10:55:21;;;;;;;17.58;3.17;;;6.80;95.40;;;;;;4970204;28;19922;-66
2022/02/07 10:57:49;;;;;;;21.33;3.08;;;6.90;95.60;;;;;;4970020;28;20543;-67
2022/02/07 11:00:21;;;;;;;19.45;3.25;;;6.90;96.00;;;;;;4970061;28;20493;-67
2022/02/07 11:02:55;;;;;;;21.35;4.88;;;7.00;95.60;;;;;;4969802;28;20131;-66
2022/02/07 11:05:25;;;;;;;25.50;5.65;;;7.00;96.00;;;;;;4969796;28;20082;-67
2022/02/07 11:08:05;;;;;;;21.30;3.97;;;7.10;95.80;;;;;;4969716;28;20652;-68
2022/02/07 11:11:04;;;;;;;16.60;2.78;;;7.20;95.60;;;;;;4969099;28;20105;-65
2022/02/07 11:18:55;;;;;;;14.20;3.60;;;7.40;95.40;;;;;;4969303;28;20063;-65
2022/02/07 11:24:26;;;;;;;18.05;3.65;;;7.50;95.20;;;;;;4966079;28;20078;-65
2022/02/07 11:26:53;;;;;;;18.63;3.25;;;7.50;94.50;;;;;;4955185;28;20588;-66
2022/02/07 11:29:37;;;;;;;28.02;3.35;;;7.60;94.50;;;;;;4969726;28;20082;-66
2022/02/07 11:32:05;;;;;;;16.33;6.20;;;7.60;94.30;;;;;;4969260;28;20055;-66
2022/02/07 11:34:42;;;;;;;12.02;2.60;;;7.60;94.50;;;;;;4969196;28;20130;-66
2022/02/07 11:37:21;;;;;;;21.50;3.28;;;7.70;94.00;;;;;;4969281;28;20082;-65
2022/02/07 11:39:49;;;;;;;23.40;5.43;;;7.80;94.20;;;;;;4969529;28;20046;-66
2022/02/07 11:42:28;;;;;;;12.98;3.28;;;7.90;93.50;;;;;;4969595;28;20134;-66
2022/02/07 11:44:55;;;;;;;32.05;3.15;;;7.80;93.00;;;;;;4969278;28;20051;-66
2022/02/07 11:47:22;;;;;;;16.83;3.17;;;7.90;93.60;;;;;;4969802;28;20101;-67
2022/02/07 11:49:51;;;;;;;14.98;2.88;;;8.00;93.60;;;;;;4968203;28;20105;-66
2022/02/07 11:52:39;;;;;;;22.77;3.63;;;8.00;93.90;;;;;;4967757;28;20054;-66
2022/02/07 11:55:23;;;;;;;24.77;3.78;;;8.10;93.30;;;;;;4969165;28;20055;-66
2022/02/07 11:58:01;;;;;;;16.13;4.07;;;8.20;93.30;;;;;;4950476;29;20054;-66
2022/02/07 12:00:33;;;;;;;28.88;3.83;;;8.20;93.30;;;;;;4967142;28;20047;-66
2022/02/07 12:03:04;;;;;;;30.67;4.15;;;8.30;92.80;;;;;;4976624;28;20070;-66
2022/02/07 12:05:33;;;;;;;25.17;3.60;;;8.40;92.90;;;;;;4971760;28;20498;-66
2022/02/07 12:08:03;;;;;;;29.15;3.78;;;8.40;93.30;;;;;;4969423;28;20414;-66
2022/02/07 12:10:38;;;;;;;16.30;3.08;;;8.50;92.80;;;;;;4968646;28;20050;-66
2022/02/07 12:13:39;;;;;;;15.70;2.90;;;8.50;92.00;;;;;;4933025;29;20125;-66
2022/02/07 12:16:20;;;;;;;13.15;3.10;;;8.50;91.10;;;;;;4968045;28;20046;-65
2022/02/07 12:19:10;;;;;;;15.82;3.08;;;8.60;91.40;;;;;;4969249;28;20047;-66
2022/02/07 12:21:38;;;;;;;19.48;3.92;;;8.70;91.50;;;;;;4965669;28;20046;-65
2022/02/07 12:24:05;;;;;;;23.20;3.35;;;8.70;92.20;;;;;;4968019;28;20109;-66
2022/02/07 12:26:41;;;;;;;13.73;3.30;;;8.80;92.00;;;;;;4951554;28;20430;-65
2022/02/07 12:29:20;;;;;;;15.27;6.03;;;8.80;90.90;;;;;;4951907;28;20106;-65
2022/02/07 12:31:47;;;;;;;13.15;2.22;;;8.90;90.80;;;;;;4951696;28;20093;-67
2022/02/07 12:34:15;;;;;;;15.55;2.92;;;9.00;89.40;;;;;;4967512;28;20105;-67
2022/02/07 12:36:42;;;;;;;16.70;3.25;;;9.10;90.70;;;;;;4968742;28;20051;-65
2022/02/07 12:39:13;;;;;;;13.82;2.13;;;9.20;90.10;;;;;;4968953;28;20348;-67
2022/02/07 12:41:40;;;;;;;11.57;2.25;;;9.30;90.10;;;;;;4969167;28;20039;-67
2022/02/07 12:44:08;;;;;;;16.05;2.83;;;9.40;89.40;;;;;;4948806;29;20054;-65
2022/02/07 12:46:35;;;;;;;16.73;2.60;;;9.60;86.10;;;;;;4964856;28;20054;-65
2022/02/07 12:49:09;;;;;;;18.75;2.90;;;9.60;85.80;;;;;;4975085;28;20047;-66
2022/02/07 12:51:42;;;;;;;12.57;2.78;;;9.60;84.90;;;;;;4978536;28;20047;-65
2022/02/07 12:54:20;;;;;;;12.48;2.17;;;9.60;84.80;;;;;;4973194;28;20046;-66
2022/02/07 12:56:48;;;;;;;11.82;2.35;;;9.60;84.80;;;;;;4972850;28;20050;-66
2022/02/07 12:59:14;;;;;;;12.00;2.72;;;9.60;88.10;;;;;;4973040;28;20051;-65
2022/02/07 13:01:42;;;;;;;7.28;2.15;;;9.70;87.70;;;;;;4973313;28;20474;-66
2022/02/07 13:04:20;;;;;;;17.67;3.08;;;9.70;85.70;;;;;;4972602;28;20053;-66
2022/02/07 13:06:49;;;;;;;19.10;3.40;;;9.80;86.80;;;;;;4973075;28;20058;-66
2022/02/07 13:09:33;;;;;;;13.57;2.47;;;9.80;87.80;;;;;;4972422;28;20493;-66
2022/02/07 13:14:42;;;;;;;9.20;3.88;;;9.90;87.20;;;;;;4972779;28;20113;-66
2022/02/07 13:17:09;;;;;;;13.23;2.38;;;10.00;88.00;;;;;;4970697;28;20043;-65
2022/02/07 13:19:41;;;;;;;10.77;2.38;;;10.10;89.00;;;;;;4971967;28;20050;-66
2022/02/07 13:22:08;;;;;;;14.57;3.33;;;10.20;88.00;;;;;;4970582;28;20566;-66
2022/02/07 13:24:36;;;;;;;26.42;4.40;;;10.30;86.10;;;;;;4972220;28;20047;-66
2022/02/07 13:27:04;;;;;;;16.25;3.17;;;10.30;88.80;;;;;;4971688;28;20061;-66
2022/02/07 13:29:46;;;;;;;10.52;2.45;;;10.30;87.80;;;;;;4970965;28;20051;-66
2022/02/07 13:32:22;;;;;;;19.83;3.92;;;10.30;85.30;;;;;;4971717;28;20059;-67
2022/02/07 13:34:49;;;;;;;16.67;3.80;;;10.30;84.90;;;;;;4970732;28;20138;-67
2022/02/07 13:37:19;;;;;;;14.27;3.58;;;10.40;85.00;;;;;;4970417;28;20082;-66
2022/02/07 13:40:04;;;;;;;20.02;2.47;;;10.40;84.30;;;;;;4972166;28;20423;-68
2022/02/07 13:42:31;;;;;;;14.05;2.65;;;10.40;82.50;;;;;;4972579;28;20382;-67
2022/02/07 13:45:29;;;;;;;10.75;2.42;;;10.50;85.50;;;;;;4972257;28;20058;-67
2022/02/07 13:47:57;;;;;;;10.85;2.63;;;10.60;79.20;;;;;;4956425;28;20458;-66
2022/02/07 13:50:28;;;;;;;12.43;2.88;;;10.50;80.30;;;;;;4971228;28;20054;-67
2022/02/07 13:52:57;;;;;;;16.20;3.03;;;10.50;78.70;;;;;;4971078;28;20042;-67
2022/02/07 13:55:34;;;;;;;12.10;2.20;;;10.40;79.00;;;;;;4971303;28;20167;-65
2022/02/07 13:58:11;;;;;;;11.43;3.03;;;10.40;78.70;;;;;;4969887;28;20133;-67
2022/02/07 14:00:40;;;;;;;13.23;3.70;;;10.40;79.80;;;;;;4970948;28;20421;-65
2022/02/07 14:03:18;;;;;;;15.63;2.75;;;10.50;79.40;;;;;;4971959;28;20151;-66
2022/02/07 14:05:48;;;;;;;12.35;2.00;;;10.50;77.20;;;;;;4971232;28;20086;-66
2022/02/07 14:08:15;;;;;;;11.27;1.73;;;10.50;80.70;;;;;;4971254;28;20074;-67
2022/02/07 14:10:44;;;;;;;12.75;4.30;;;10.50;75.30;;;;;;4970849;28;20500;-65
2022/02/07 14:13:14;;;;;;;13.82;2.53;;;10.50;79.40;;;;;;4970949;28;20047;-67
2022/02/07 14:15:42;;;;;;;14.45;4.82;;;10.60;76.60;;;;;;4970867;28;20078;-67
2022/02/07 14:18:11;;;;;;;9.18;2.72;;;10.60;79.60;;;;;;4969613;28;20082;-66
2022/02/07 14:20:40;;;;;;;19.40;3.08;;;10.60;80.00;;;;;;4970813;28;20050;-66
2022/02/07 14:23:10;;;;;;;14.27;2.00;;;10.60;80.60;;;;;;4970549;28;20530;-66
2022/02/07 14:25:38;;;;;;;9.30;2.50;;;10.50;78.10;;;;;;4969541;28;20047;-66
2022/02/07 14:28:05;;;;;;;15.32;2.10;;;10.50;79.30;;;;;;4970942;28;20051;-66
2022/02/07 14:30:32;;;;;;;13.85;2.30;;;10.50;79.10;;;;;;4970610;28;20426;-67
2022/02/07 14:32:59;;;;;;;14.45;2.75;;;10.50;81.30;;;;;;4952949;28;20070;-65
2022/02/07 14:35:27;;;;;;;15.02;3.35;;;10.50;82.50;;;;;;4970201;28;20085;-67
2022/02/07 14:37:53;;;;;;;18.98;2.72;;;10.50;82.40;;;;;;4970542;28;20078;-66
2022/02/07 14:40:20;;;;;;;7.50;2.40;;;10.50;83.00;;;;;;4970312;28;20047;-65
2022/02/07 14:42:47;;;;;;;11.40;2.70;;;10.50;82.80;;;;;;4970385;28;20058;-66
2022/02/07 14:45:16;;;;;;;14.45;2.22;;;10.50;83.80;;;;;;4970051;28;20046;-65
2022/02/07 14:50:13;;;;;;;25.05;2.90;;;10.50;83.60;;;;;;4969969;28;20115;-67
2022/02/07 14:52:40;;;;;;;9.57;2.35;;;10.50;84.50;;;;;;4970224;28;20288;-67
2022/02/07 14:55:07;;;;;;;26.08;4.72;;;10.50;85.60;;;;;;4969646;28;20525;-66
2022/02/07 14:57:34;;;;;;;11.48;2.90;;;10.40;85.80;;;;;;4969070;28;20050;-67
2022/02/07 15:00:01;;;;;;;15.00;3.58;;;10.40;86.30;;;;;;4968906;28;20047;-66
2022/02/07 15:02:28;;;;;;;20.02;3.28;;;10.30;87.10;;;;;;4974910;28;20043;-66
2022/02/07 15:04:55;;;;;;;7.95;2.75;;;10.40;87.90;;;;;;4962553;28;20043;-66
2022/02/07 15:07:22;;;;;;;12.23;3.30;;;10.40;87.80;;;;;;4969861;28;20086;-66
2022/02/07 15:09:50;;;;;;;13.50;3.80;;;10.30;87.60;;;;;;4952684;28;20054;-64
2022/02/07 15:12:16;;;;;;;14.20;3.00;;;10.20;87.90;;;;;;4969042;28;20414;-66
2022/02/07 15:14:49;;;;;;;25.55;3.55;;;10.10;89.00;;;;;;4969404;28;20094;-66
2022/02/07 15:17:18;;;;;;;14.63;3.00;;;10.10;89.80;;;;;;4969305;28;20047;-67
2022/02/07 15:19:45;;;;;;;12.60;2.28;;;10.00;90.10;;;;;;4968695;28;20506;-66
2022/02/07 15:22:13;;;;;;;18.52;4.32;;;10.00;90.30;;;;;;4672041;28;10000748;-65
2022/02/07 15:24:43;;;;;;;21.60;3.63;;;10.00;90.70;;;;;;4971363;28;20776;-67
2022/02/07 15:27:10;;;;;;;11.55;2.63;;;10.00;90.70;;;;;;4972154;28;20054;-66
2022/02/07 15:29:39;;;;;;;25.65;3.30;;;10.00;90.80;;;;;;4972054;28;20054;-65
2022/02/07 15:34:57;;;;;;;11.10;1.85;;;10.00;91.50;;;;;;4966363;28;20059;-66
2022/02/07 15:37:24;;;;;;;8.38;2.20;;;10.00;92.10;;;;;;4966207;28;20086;-66